Chusovoy, Russia
Current Conditions -  °F | °C
As of 8:30 PM on Thursday 27 Nov 2014 (Local Time) from USPP Reporting Station
Haze Haze  
Wind Chill:   Ceiling: 4000
Heat Index:   Visibility: 2.7mi
Dew Point: -2°   Wind: 2mph
Humidity: 85%   Direction: NA
Pressure: 30.5"   Gusts: NA
Location:  58.29°N, 57.82°E
Report Text: USPP 271530Z VRB01MPS 4400 BR BKN040 M17/M19 Q1033 21350345NOSIG RMK QFE764/1019
Loading
Personal Weather Stations






























Interactive Weather Map New forecast layout! Learn more

10-Day Weather Forecast

Advertisements
Track Severe Weather on mobile